Terminal Aerodrome Forecast
Issued by NWS Lake Charles, LA

Home | Current Version | Previous Version | Text Only | Print | Product List | Glossary On
Versions: 1 2 3 4 5 6 7 8 9 10 11 12 13 14 15 16 17
000
FTUS44 KLCH 021735
TAFLFT
TAF
KLFT 021735Z 0218/0318 05006KT P6SM SCT040 BKN070
     FM021900 07006KT 6SM -RA VCTS FEW025CB BKN040 OVC070
     FM022200 09005KT P6SM VCSH SCT030 BKN050 OVC100
     FM030100 00000KT P6SM FEW050 BKN200
     FM031500 09006KT P6SM SCT030=

USA.gov is the U.S. government's official web portal to all federal, state and local government web resources and services.